sensor_id;sensor_type;location;lat;lon;timestamp;pressure;altitude;pressure_sealevel;temperature;humidity
64211;BME280;50528;48.514;14.394;2023-03-04T00:00:08;93992.13;;;-0.30;68.07
64211;BME280;50528;48.514;14.394;2023-03-04T00:01:01;93993.34;;;-0.33;67.94
64211;BME280;50528;48.514;14.394;2023-03-04T00:01:35;93991.30;;;-0.35;67.91
64211;BME280;50528;48.514;14.394;2023-03-04T00:02:08;93993.58;;;-0.35;67.76
64211;BME280;50528;48.514;14.394;2023-03-04T00:02:41;93989.17;;;-0.38;67.95
64211;BME280;50528;48.514;14.394;2023-03-04T00:03:15;93993.16;;;-0.36;67.82
64211;BME280;50528;48.514;14.394;2023-03-04T00:03:48;93989.05;;;-0.38;67.89
64211;BME280;50528;48.514;14.394;2023-03-04T00:04:21;93995.16;;;-0.36;67.99
64211;BME280;50528;48.514;14.394;2023-03-04T00:04:55;93987.20;;;-0.38;67.77
64211;BME280;50528;48.514;14.394;2023-03-04T00:05:28;93977.25;;;-0.46;67.83
64211;BME280;50528;48.514;14.394;2023-03-04T00:06:03;93988.01;;;-0.36;67.72
64211;BME280;50528;48.514;14.394;2023-03-04T00:06:37;93992.45;;;-0.37;67.75
64211;BME280;50528;48.514;14.394;2023-03-04T00:07:11;93991.66;;;-0.38;67.76
64211;BME280;50528;48.514;14.394;2023-03-04T00:07:49;93987.20;;;-0.38;67.75
64211;BME280;50528;48.514;14.394;2023-03-04T00:08:22;93988.89;;;-0.40;67.67
64211;BME280;50528;48.514;14.394;2023-03-04T00:08:56;93992.58;;;-0.41;67.56
64211;BME280;50528;48.514;14.394;2023-03-04T00:09:29;93989.27;;;-0.40;67.45
64211;BME280;50528;48.514;14.394;2023-03-04T00:10:04;93990.15;;;-0.40;67.57
64211;BME280;50528;48.514;14.394;2023-03-04T00:10:37;93990.65;;;-0.42;67.60
64211;BME280;50528;48.514;14.394;2023-03-04T00:11:11;93990.96;;;-0.43;67.54
64211;BME280;50528;48.514;14.394;2023-03-04T00:11:44;93989.23;;;-0.44;67.54
64211;BME280;50528;48.514;14.394;2023-03-04T00:12:17;93989.02;;;-0.46;67.39
64211;BME280;50528;48.514;14.394;2023-03-04T00:12:52;93990.08;;;-0.46;67.45
64211;BME280;50528;48.514;14.394;2023-03-04T00:13:25;93994.05;;;-0.46;67.55
64211;BME280;50528;48.514;14.394;2023-03-04T00:13:59;93990.98;;;-0.46;67.51
64211;BME280;50528;48.514;14.394;2023-03-04T00:14:32;93971.36;;;-0.62;67.49
64211;BME280;50528;48.514;14.394;2023-03-04T00:15:07;93991.84;;;-0.48;67.59
64211;BME280;50528;48.514;14.394;2023-03-04T00:15:40;93991.88;;;-0.48;67.60
64211;BME280;50528;48.514;14.394;2023-03-04T00:16:14;93994.51;;;-0.48;67.66
64211;BME280;50528;48.514;14.394;2023-03-04T00:16:47;93995.52;;;-0.48;67.65
64211;BME280;50528;48.514;14.394;2023-03-04T00:17:21;93993.10;;;-0.51;67.59
64211;BME280;50528;48.514;14.394;2023-03-04T00:17:55;93991.05;;;-0.50;67.58
64211;BME280;50528;48.514;14.394;2023-03-04T00:18:28;93993.92;;;-0.49;67.72
64211;BME280;50528;48.514;14.394;2023-03-04T00:19:01;93987.73;;;-0.49;67.80
64211;BME280;50528;48.514;14.394;2023-03-04T00:19:38;93992.08;;;-0.50;67.79
64211;BME280;50528;48.514;14.394;2023-03-04T00:20:12;93993.48;;;-0.50;67.76
64211;BME280;50528;48.514;14.394;2023-03-04T00:20:46;93988.86;;;-0.50;67.92
64211;BME280;50528;48.514;14.394;2023-03-04T00:21:20;93994.27;;;-0.52;67.96
64211;BME280;50528;48.514;14.394;2023-03-04T00:21:53;93993.84;;;-0.51;67.81
64211;BME280;50528;48.514;14.394;2023-03-04T00:22:27;93989.55;;;-0.51;67.95
64211;BME280;50528;48.514;14.394;2023-03-04T00:23:00;93990.77;;;-0.52;67.87
64211;BME280;50528;48.514;14.394;2023-03-04T00:23:36;93991.33;;;-0.52;67.97
64211;BME280;50528;48.514;14.394;2023-03-04T00:24:09;93990.71;;;-0.53;68.16
64211;BME280;50528;48.514;14.394;2023-03-04T00:24:42;93991.00;;;-0.52;68.13
64211;BME280;50528;48.514;14.394;2023-03-04T00:25:16;93988.18;;;-0.53;68.25
64211;BME280;50528;48.514;14.394;2023-03-04T00:25:49;93988.78;;;-0.52;67.98
64211;BME280;50528;48.514;14.394;2023-03-04T00:26:23;93990.77;;;-0.52;67.96
64211;BME280;50528;48.514;14.394;2023-03-04T00:26:56;93989.61;;;-0.52;68.08
64211;BME280;50528;48.514;14.394;2023-03-04T00:27:29;93989.98;;;-0.52;68.16
64211;BME280;50528;48.514;14.394;2023-03-04T00:28:03;93990.65;;;-0.52;68.15
64211;BME280;50528;48.514;14.394;2023-03-04T00:28:37;93988.46;;;-0.53;68.16
64211;BME280;50528;48.514;14.394;2023-03-04T00:29:11;93987.79;;;-0.53;68.14
64211;BME280;50528;48.514;14.394;2023-03-04T00:29:44;93988.20;;;-0.52;68.17
64211;BME280;50528;48.514;14.394;2023-03-04T00:30:18;93986.12;;;-0.53;68.15
64211;BME280;50528;48.514;14.394;2023-03-04T00:30:52;93989.85;;;-0.53;68.03
64211;BME280;50528;48.514;14.394;2023-03-04T00:31:25;93989.33;;;-0.54;68.00
64211;BME280;50528;48.514;14.394;2023-03-04T00:31:58;93991.88;;;-0.54;68.24
64211;BME280;50528;48.514;14.394;2023-03-04T00:32:32;93992.03;;;-0.54;68.03
64211;BME280;50528;48.514;14.394;2023-03-04T00:33:06;93991.07;;;-0.54;68.06
64211;BME280;50528;48.514;14.394;2023-03-04T00:33:39;93987.78;;;-0.54;68.24
64211;BME280;50528;48.514;14.394;2023-03-04T00:34:13;93987.85;;;-0.54;68.32
64211;BME280;50528;48.514;14.394;2023-03-04T00:34:46;93988.40;;;-0.55;68.21
64211;BME280;50528;48.514;14.394;2023-03-04T00:35:19;93992.11;;;-0.54;68.35
64211;BME280;50528;48.514;14.394;2023-03-04T00:35:53;93990.11;;;-0.55;68.20
64211;BME280;50528;48.514;14.394;2023-03-04T00:36:27;93993.53;;;-0.55;68.31
64211;BME280;50528;48.514;14.394;2023-03-04T00:37:00;93991.15;;;-0.55;68.25
64211;BME280;50528;48.514;14.394;2023-03-04T00:37:35;93989.98;;;-0.55;68.19
64211;BME280;50528;48.514;14.394;2023-03-04T00:38:12;93987.60;;;-0.55;68.12
64211;BME280;50528;48.514;14.394;2023-03-04T00:38:47;93990.86;;;-0.55;68.15
64211;BME280;50528;48.514;14.394;2023-03-04T00:39:20;93984.87;;;-0.60;68.32
64211;BME280;50528;48.514;14.394;2023-03-04T00:39:54;93992.42;;;-0.54;68.63
64211;BME280;50528;48.514;14.394;2023-03-04T00:40:27;93990.92;;;-0.53;68.73
64211;BME280;50528;48.514;14.394;2023-03-04T00:41:01;93984.14;;;-0.55;68.60
64211;BME280;50528;48.514;14.394;2023-03-04T00:41:34;93988.91;;;-0.53;68.78
64211;BME280;50528;48.514;14.394;2023-03-04T00:42:08;93989.21;;;-0.53;68.45
64211;BME280;50528;48.514;14.394;2023-03-04T00:42:43;93988.34;;;-0.53;68.69
64211;BME280;50528;48.514;14.394;2023-03-04T00:43:17;93985.76;;;-0.53;68.57
64211;BME280;50528;48.514;14.394;2023-03-04T00:43:50;93983.54;;;-0.53;68.79
64211;BME280;50528;48.514;14.394;2023-03-04T00:44:23;93985.35;;;-0.53;68.94
64211;BME280;50528;48.514;14.394;2023-03-04T00:44:57;93983.31;;;-0.51;68.82
64211;BME280;50528;48.514;14.394;2023-03-04T00:45:31;93982.63;;;-0.53;68.94
64211;BME280;50528;48.514;14.394;2023-03-04T00:46:04;93981.77;;;-0.51;69.09
64211;BME280;50528;48.514;14.394;2023-03-04T00:46:37;93986.96;;;-0.51;69.25
64211;BME280;50528;48.514;14.394;2023-03-04T00:47:11;93982.04;;;-0.52;69.16
64211;BME280;50528;48.514;14.394;2023-03-04T00:47:44;93981.84;;;-0.52;69.35
64211;BME280;50528;48.514;14.394;2023-03-04T00:48:17;93979.58;;;-0.52;69.37
64211;BME280;50528;48.514;14.394;2023-03-04T00:48:51;93985.58;;;-0.51;69.44
64211;BME280;50528;48.514;14.394;2023-03-04T00:49:24;93983.96;;;-0.51;69.52
64211;BME280;50528;48.514;14.394;2023-03-04T00:49:57;93984.48;;;-0.51;69.43
64211;BME280;50528;48.514;14.394;2023-03-04T00:50:31;93985.56;;;-0.53;69.64
64211;BME280;50528;48.514;14.394;2023-03-04T00:51:05;93983.13;;;-0.53;69.83
64211;BME280;50528;48.514;14.394;2023-03-04T00:51:38;93980.73;;;-0.52;69.72
64211;BME280;50528;48.514;14.394;2023-03-04T00:52:11;93984.73;;;-0.52;69.76
64211;BME280;50528;48.514;14.394;2023-03-04T00:52:45;93981.05;;;-0.51;70.08
64211;BME280;50528;48.514;14.394;2023-03-04T00:53:19;93981.70;;;-0.50;70.09
64211;BME280;50528;48.514;14.394;2023-03-04T00:53:52;93975.40;;;-0.50;70.07
64211;BME280;50528;48.514;14.394;2023-03-04T00:54:26;93976.44;;;-0.50;70.21
64211;BME280;50528;48.514;14.394;2023-03-04T00:54:59;93962.23;;;-0.61;70.48
64211;BME280;50528;48.514;14.394;2023-03-04T00:55:32;93975.80;;;-0.50;70.44
64211;BME280;50528;48.514;14.394;2023-03-04T00:56:06;93976.77;;;-0.49;70.41
64211;BME280;50528;48.514;14.394;2023-03-04T00:56:39;93974.34;;;-0.49;70.33
64211;BME280;50528;48.514;14.394;2023-03-04T00:57:13;93978.48;;;-0.48;70.73
64211;BME280;50528;48.514;14.394;2023-03-04T00:57:46;93976.36;;;-0.46;70.95
64211;BME280;50528;48.514;14.394;2023-03-04T00:58:20;93974.94;;;-0.46;70.85
64211;BME280;50528;48.514;14.394;2023-03-04T00:58:53;93975.00;;;-0.45;70.91
64211;BME280;50528;48.514;14.394;2023-03-04T00:59:27;93972.52;;;-0.44;70.99
64211;BME280;50528;48.514;14.394;2023-03-04T01:00:00;93974.67;;;-0.44;71.08
64211;BME280;50528;48.514;14.394;2023-03-04T01:00:34;93962.16;;;-0.48;70.94
64211;BME280;50528;48.514;14.394;2023-03-04T01:01:07;93970.94;;;-0.43;71.19
64211;BME280;50528;48.514;14.394;2023-03-04T01:01:41;93974.34;;;-0.40;71.26
64211;BME280;50528;48.514;14.394;2023-03-04T01:02:14;93963.46;;;-0.46;71.34
64211;BME280;50528;48.514;14.394;2023-03-04T01:02:47;93971.00;;;-0.40;71.30
64211;BME280;50528;48.514;14.394;2023-03-04T01:03:21;93969.77;;;-0.39;71.41
64211;BME280;50528;48.514;14.394;2023-03-04T01:03:54;93968.74;;;-0.38;71.43
64211;BME280;50528;48.514;14.394;2023-03-04T01:04:28;93969.10;;;-0.35;71.73
64211;BME280;50528;48.514;14.394;2023-03-04T01:05:01;93967.08;;;-0.34;71.77
64211;BME280;50528;48.514;14.394;2023-03-04T01:05:34;93967.83;;;-0.30;72.12
64211;BME280;50528;48.514;14.394;2023-03-04T01:06:08;93969.05;;;-0.27;72.30
64211;BME280;50528;48.514;14.394;2023-03-04T01:06:41;93962.09;;;-0.25;72.37
64211;BME280;50528;48.514;14.394;2023-03-04T01:07:15;93965.92;;;-0.23;72.86
64211;BME280;50528;48.514;14.394;2023-03-04T01:07:48;93961.52;;;-0.18;72.81
64211;BME280;50528;48.514;14.394;2023-03-04T01:08:21;93962.77;;;-0.15;72.95
64211;BME280;50528;48.514;14.394;2023-03-04T01:08:54;93958.45;;;-0.15;72.84
64211;BME280;50528;48.514;14.394;2023-03-04T01:09:28;93958.05;;;-0.13;73.14
64211;BME280;50528;48.514;14.394;2023-03-04T01:10:01;93959.08;;;-0.12;73.24
64211;BME280;50528;48.514;14.394;2023-03-04T01:10:34;93957.13;;;-0.09;73.35
64211;BME280;50528;48.514;14.394;2023-03-04T01:11:08;93957.67;;;-0.08;73.40
64211;BME280;50528;48.514;14.394;2023-03-04T01:11:42;93956.91;;;-0.05;73.45
64211;BME280;50528;48.514;14.394;2023-03-04T01:12:16;93956.92;;;-0.04;73.42
64211;BME280;50528;48.514;14.394;2023-03-04T01:12:51;93955.41;;;-0.02;73.71
64211;BME280;50528;48.514;14.394;2023-03-04T01:13:27;93955.36;;;-0.00;73.43
64211;BME280;50528;48.514;14.394;2023-03-04T01:14:01;93954.54;;;0.02;73.83
64211;BME280;50528;48.514;14.394;2023-03-04T01:14:34;93954.52;;;0.04;74.04
64211;BME280;50528;48.514;14.394;2023-03-04T01:15:10;93954.91;;;0.05;74.03
64211;BME280;50528;48.514;14.394;2023-03-04T01:15:44;93957.92;;;0.06;74.13
64211;BME280;50528;48.514;14.394;2023-03-04T01:16:17;93956.75;;;0.04;73.88
64211;BME280;50528;48.514;14.394;2023-03-04T01:16:51;93954.33;;;0.04;73.89
64211;BME280;50528;48.514;14.394;2023-03-04T01:17:27;93954.39;;;0.05;74.23
64211;BME280;50528;48.514;14.394;2023-03-04T01:18:00;93953.63;;;0.06;74.04
64211;BME280;50528;48.514;14.394;2023-03-04T01:18:34;93956.69;;;0.06;74.04
64211;BME280;50528;48.514;14.394;2023-03-04T01:19:07;93955.10;;;0.06;74.12
64211;BME280;50528;48.514;14.394;2023-03-04T01:19:41;93959.16;;;0.07;74.12
64211;BME280;50528;48.514;14.394;2023-03-04T01:20:15;93953.46;;;0.08;74.33
64211;BME280;50528;48.514;14.394;2023-03-04T01:20:48;93953.84;;;0.10;74.26
64211;BME280;50528;48.514;14.394;2023-03-04T01:21:21;93954.53;;;0.11;74.41
64211;BME280;50528;48.514;14.394;2023-03-04T01:21:55;93954.30;;;0.13;74.90
64211;BME280;50528;48.514;14.394;2023-03-04T01:22:28;93954.50;;;0.13;74.56
64211;BME280;50528;48.514;14.394;2023-03-04T01:23:01;93955.52;;;0.14;74.73
64211;BME280;50528;48.514;14.394;2023-03-04T01:23:35;93950.50;;;0.13;74.48
64211;BME280;50528;48.514;14.394;2023-03-04T01:24:08;93954.26;;;0.15;74.68
64211;BME280;50528;48.514;14.394;2023-03-04T01:24:44;93953.90;;;0.15;74.68
64211;BME280;50528;48.514;14.394;2023-03-04T01:25:18;93954.42;;;0.15;74.65
64211;BME280;50528;48.514;14.394;2023-03-04T01:25:53;93952.50;;;0.17;74.81
64211;BME280;50528;48.514;14.394;2023-03-04T01:26:26;93953.86;;;0.17;74.87
64211;BME280;50528;48.514;14.394;2023-03-04T01:26:59;93951.75;;;0.17;74.77
64211;BME280;50528;48.514;14.394;2023-03-04T01:27:33;93947.80;;;0.17;74.93
64211;BME280;50528;48.514;14.394;2023-03-04T01:28:06;93951.70;;;0.20;74.84
64211;BME280;50528;48.514;14.394;2023-03-04T01:28:40;93948.14;;;0.21;75.12
64211;BME280;50528;48.514;14.394;2023-03-04T01:29:13;93952.17;;;0.22;75.08
64211;BME280;50528;48.514;14.394;2023-03-04T01:29:46;93951.62;;;0.24;75.27
64211;BME280;50528;48.514;14.394;2023-03-04T01:30:20;93951.02;;;0.24;74.99
64211;BME280;50528;48.514;14.394;2023-03-04T01:30:53;93947.02;;;0.25;74.87
64211;BME280;50528;48.514;14.394;2023-03-04T01:31:29;93948.43;;;0.26;75.04
64211;BME280;50528;48.514;14.394;2023-03-04T01:32:02;93947.92;;;0.27;75.21
64211;BME280;50528;48.514;14.394;2023-03-04T01:32:36;93949.52;;;0.29;75.38
64211;BME280;50528;48.514;14.394;2023-03-04T01:33:09;93947.59;;;0.29;75.08
64211;BME280;50528;48.514;14.394;2023-03-04T01:33:43;93945.05;;;0.30;75.44
64211;BME280;50528;48.514;14.394;2023-03-04T01:34:16;93945.92;;;0.31;75.19
64211;BME280;50528;48.514;14.394;2023-03-04T01:34:50;93945.64;;;0.32;75.25
64211;BME280;50528;48.514;14.394;2023-03-04T01:35:23;93943.70;;;0.32;75.21
64211;BME280;50528;48.514;14.394;2023-03-04T01:35:57;93945.27;;;0.34;75.30
64211;BME280;50528;48.514;14.394;2023-03-04T01:36:30;93941.86;;;0.35;75.52
64211;BME280;50528;48.514;14.394;2023-03-04T01:37:04;93945.15;;;0.36;75.10
64211;BME280;50528;48.514;14.394;2023-03-04T01:37:37;93945.54;;;0.37;75.59
64211;BME280;50528;48.514;14.394;2023-03-04T01:38:11;93944.23;;;0.38;75.46
64211;BME280;50528;48.514;14.394;2023-03-04T01:38:44;93943.67;;;0.38;75.25
64211;BME280;50528;48.514;14.394;2023-03-04T01:39:18;93941.80;;;0.38;75.36
64211;BME280;50528;48.514;14.394;2023-03-04T01:39:51;93942.21;;;0.39;75.26
64211;BME280;50528;48.514;14.394;2023-03-04T01:40:25;93942.51;;;0.40;75.29
64211;BME280;50528;48.514;14.394;2023-03-04T01:41:00;93938.48;;;0.39;75.29
64211;BME280;50528;48.514;14.394;2023-03-04T01:41:34;93945.86;;;0.40;75.33
64211;BME280;50528;48.514;14.394;2023-03-04T01:42:29;93941.60;;;0.41;75.45
64211;BME280;50528;48.514;14.394;2023-03-04T01:43:04;93939.40;;;0.39;75.07
64211;BME280;50528;48.514;14.394;2023-03-04T01:43:38;93938.02;;;0.39;75.22
64211;BME280;50528;48.514;14.394;2023-03-04T01:44:12;93939.63;;;0.39;75.12
64211;BME280;50528;48.514;14.394;2023-03-04T01:44:46;93935.38;;;0.38;75.23
64211;BME280;50528;48.514;14.394;2023-03-04T01:45:20;93935.34;;;0.39;75.14
64211;BME280;50528;48.514;14.394;2023-03-04T01:45:55;93933.91;;;0.39;75.18
64211;BME280;50528;48.514;14.394;2023-03-04T01:46:30;93934.42;;;0.39;75.26
64211;BME280;50528;48.514;14.394;2023-03-04T01:47:04;93934.13;;;0.40;75.20
64211;BME280;50528;48.514;14.394;2023-03-04T01:47:37;93933.09;;;0.40;74.94
64211;BME280;50528;48.514;14.394;2023-03-04T01:48:14;93932.58;;;0.40;75.20
64211;BME280;50528;48.514;14.394;2023-03-04T01:48:49;93931.77;;;0.40;75.07
64211;BME280;50528;48.514;14.394;2023-03-04T01:49:22;93930.04;;;0.38;75.35
64211;BME280;50528;48.514;14.394;2023-03-04T01:49:56;93931.02;;;0.42;75.39
64211;BME280;50528;48.514;14.394;2023-03-04T01:50:32;93926.56;;;0.41;75.40
64211;BME280;50528;48.514;14.394;2023-03-04T01:51:15;93926.80;;;0.41;75.34
64211;BME280;50528;48.514;14.394;2023-03-04T01:51:51;93924.48;;;0.40;75.13
64211;BME280;50528;48.514;14.394;2023-03-04T01:52:27;93923.98;;;0.40;75.25
64211;BME280;50528;48.514;14.394;2023-03-04T01:53:02;93924.80;;;0.40;75.28
64211;BME280;50528;48.514;14.394;2023-03-04T01:53:35;93922.67;;;0.41;75.18
64211;BME280;50528;48.514;14.394;2023-03-04T01:54:09;93920.80;;;0.43;75.15
64211;BME280;50528;48.514;14.394;2023-03-04T01:54:42;93921.73;;;0.44;75.46
64211;BME280;50528;48.514;14.394;2023-03-04T01:55:20;93921.98;;;0.44;75.71
64211;BME280;50528;48.514;14.394;2023-03-04T01:56:22;93921.38;;;0.44;75.59
64211;BME280;50528;48.514;14.394;2023-03-04T01:56:56;93919.99;;;0.40;75.40
64211;BME280;50528;48.514;14.394;2023-03-04T01:57:34;93916.52;;;0.39;75.33
64211;BME280;50528;48.514;14.394;2023-03-04T01:58:09;93917.77;;;0.40;75.41
64211;BME280;50528;48.514;14.394;2023-03-04T01:58:44;93919.36;;;0.40;75.40
64211;BME280;50528;48.514;14.394;2023-03-04T01:59:22;93918.16;;;0.40;75.33
64211;BME280;50528;48.514;14.394;2023-03-04T02:00:31;93916.14;;;0.41;75.48
64211;BME280;50528;48.514;14.394;2023-03-04T02:01:09;93914.79;;;0.38;75.57
64211;BME280;50528;48.514;14.394;2023-03-04T02:01:55;93918.19;;;0.38;75.73
64211;BME280;50528;48.514;14.394;2023-03-04T02:02:28;93914.31;;;0.37;75.81
64211;BME280;50528;48.514;14.394;2023-03-04T02:03:10;93911.97;;;0.38;75.71
64211;BME280;50528;48.514;14.394;2023-03-04T02:03:44;93912.05;;;0.37;75.93
64211;BME280;50528;48.514;14.394;2023-03-04T02:04:21;93914.30;;;0.39;75.76
64211;BME280;50528;48.514;14.394;2023-03-04T02:04:56;93911.45;;;0.40;75.68
64211;BME280;50528;48.514;14.394;2023-03-04T02:05:29;93911.09;;;0.40;75.64
64211;BME280;50528;48.514;14.394;2023-03-04T02:06:03;93910.81;;;0.41;75.62
64211;BME280;50528;48.514;14.394;2023-03-04T02:06:39;93912.48;;;0.41;75.69
64211;BME280;50528;48.514;14.394;2023-03-04T02:07:13;93910.19;;;0.40;75.90
64211;BME280;50528;48.514;14.394;2023-03-04T02:07:47;93907.08;;;0.40;75.90
64211;BME280;50528;48.514;14.394;2023-03-04T02:08:22;93907.83;;;0.41;75.60
64211;BME280;50528;48.514;14.394;2023-03-04T02:08:56;93905.64;;;0.41;75.82
64211;BME280;50528;48.514;14.394;2023-03-04T02:09:31;93901.55;;;0.40;75.92
64211;BME280;50528;48.514;14.394;2023-03-04T02:10:05;93903.90;;;0.41;75.54
64211;BME280;50528;48.514;14.394;2023-03-04T02:10:41;93902.86;;;0.41;75.84
64211;BME280;50528;48.514;14.394;2023-03-04T02:11:15;93902.90;;;0.40;75.98
64211;BME280;50528;48.514;14.394;2023-03-04T02:11:49;93901.07;;;0.40;75.73
64211;BME280;50528;48.514;14.394;2023-03-04T02:12:23;93898.45;;;0.40;76.05
64211;BME280;50528;48.514;14.394;2023-03-04T02:12:57;93900.67;;;0.42;75.92
64211;BME280;50528;48.514;14.394;2023-03-04T02:13:31;93895.66;;;0.41;75.96
64211;BME280;50528;48.514;14.394;2023-03-04T02:14:06;93896.34;;;0.41;75.91
64211;BME280;50528;48.514;14.394;2023-03-04T02:14:40;93894.74;;;0.41;75.93
64211;BME280;50528;48.514;14.394;2023-03-04T02:15:14;93893.98;;;0.42;76.00
64211;BME280;50528;48.514;14.394;2023-03-04T02:15:47;93892.20;;;0.42;75.98
64211;BME280;50528;48.514;14.394;2023-03-04T02:16:21;93891.23;;;0.45;76.28
64211;BME280;50528;48.514;14.394;2023-03-04T02:16:55;93886.25;;;0.43;76.60
64211;BME280;50528;48.514;14.394;2023-03-04T02:17:28;93891.13;;;0.46;76.54
64211;BME280;50528;48.514;14.394;2023-03-04T02:18:11;93890.02;;;0.46;76.65
64211;BME280;50528;48.514;14.394;2023-03-04T02:18:47;93892.13;;;0.46;76.70
64211;BME280;50528;48.514;14.394;2023-03-04T02:19:41;93891.36;;;0.45;76.41
64211;BME280;50528;48.514;14.394;2023-03-04T02:20:24;93892.13;;;0.46;76.94
64211;BME280;50528;48.514;14.394;2023-03-04T02:21:32;93891.33;;;0.46;76.59
64211;BME280;50528;48.514;14.394;2023-03-04T02:22:06;93888.89;;;0.44;77.07
64211;BME280;50528;48.514;14.394;2023-03-04T02:22:56;93889.31;;;0.47;77.19
64211;BME280;50528;48.514;14.394;2023-03-04T02:25:14;93892.94;;;0.47;76.99
64211;BME280;50528;48.514;14.394;2023-03-04T02:26:36;93890.52;;;0.45;77.33
64211;BME280;50528;48.514;14.394;2023-03-04T02:27:13;93890.16;;;0.46;77.18
64211;BME280;50528;48.514;14.394;2023-03-04T02:27:46;93885.20;;;0.46;77.57
64211;BME280;50528;48.514;14.394;2023-03-04T02:28:20;93882.37;;;0.45;77.16
64211;BME280;50528;48.514;14.394;2023-03-04T02:28:56;93891.33;;;0.50;77.40
64211;BME280;50528;48.514;14.394;2023-03-04T02:29:30;93889.48;;;0.51;77.32
64211;BME280;50528;48.514;14.394;2023-03-04T02:30:04;93883.38;;;0.53;77.46
64211;BME280;50528;48.514;14.394;2023-03-04T02:30:37;93890.31;;;0.54;77.58
64211;BME280;50528;48.514;14.394;2023-03-04T02:31:52;93886.40;;;0.55;77.70
64211;BME280;50528;48.514;14.394;2023-03-04T02:32:27;93888.41;;;0.57;77.75
64211;BME280;50528;48.514;14.394;2023-03-04T02:33:00;93889.66;;;0.58;77.95
64211;BME280;50528;48.514;14.394;2023-03-04T02:33:34;93890.67;;;0.59;77.79
64211;BME280;50528;48.514;14.394;2023-03-04T02:34:17;93885.41;;;0.60;77.78
64211;BME280;50528;48.514;14.394;2023-03-04T02:34:51;93888.85;;;0.61;77.95
64211;BME280;50528;48.514;14.394;2023-03-04T02:35:25;93888.82;;;0.62;77.87
64211;BME280;50528;48.514;14.394;2023-03-04T02:35:59;93885.82;;;0.64;77.99
64211;BME280;50528;48.514;14.394;2023-03-04T02:36:34;93888.70;;;0.67;77.88
64211;BME280;50528;48.514;14.394;2023-03-04T02:37:09;93886.92;;;0.73;78.31
64211;BME280;50528;48.514;14.394;2023-03-04T02:37:42;93887.16;;;0.72;78.22
64211;BME280;50528;48.514;14.394;2023-03-04T02:38:16;93889.17;;;0.74;78.43
64211;BME280;50528;48.514;14.394;2023-03-04T02:38:51;93885.00;;;0.71;78.21
64211;BME280;50528;48.514;14.394;2023-03-04T02:40:02;93885.36;;;0.71;78.13
64211;BME280;50528;48.514;14.394;2023-03-04T02:40:32;93885.84;;;0.70;78.30
64211;BME280;50528;48.514;14.394;2023-03-04T02:41:11;93888.23;;;0.71;78.42
64211;BME280;50528;48.514;14.394;2023-03-04T02:41:47;93886.98;;;0.71;78.44
64211;BME280;50528;48.514;14.394;2023-03-04T02:42:21;93887.41;;;0.73;78.32
64211;BME280;50528;48.514;14.394;2023-03-04T02:42:54;93886.76;;;0.71;78.22
64211;BME280;50528;48.514;14.394;2023-03-04T02:43:30;93887.08;;;0.73;78.29
64211;BME280;50528;48.514;14.394;2023-03-04T02:44:15;93886.08;;;0.74;78.21
64211;BME280;50528;48.514;14.394;2023-03-04T02:44:58;93883.89;;;0.75;78.34
64211;BME280;50528;48.514;14.394;2023-03-04T02:46:05;93883.77;;;0.75;78.34
64211;BME280;50528;48.514;14.394;2023-03-04T02:46:38;93883.31;;;0.76;78.35
64211;BME280;50528;48.514;14.394;2023-03-04T02:47:15;93882.55;;;0.76;78.32
64211;BME280;50528;48.514;14.394;2023-03-04T02:47:53;93882.27;;;0.77;78.43
64211;BME280;50528;48.514;14.394;2023-03-04T02:48:26;93879.41;;;0.81;78.66
64211;BME280;50528;48.514;14.394;2023-03-04T02:48:59;93877.02;;;0.78;78.48
64211;BME280;50528;48.514;14.394;2023-03-04T02:50:50;93878.94;;;0.78;78.45
64211;BME280;50528;48.514;14.394;2023-03-04T02:51:25;93878.92;;;0.71;78.49
64211;BME280;50528;48.514;14.394;2023-03-04T02:52:04;93881.45;;;0.74;78.33
64211;BME280;50528;48.514;14.394;2023-03-04T02:52:39;93869.64;;;0.66;78.48
64211;BME280;50528;48.514;14.394;2023-03-04T02:53:12;93876.14;;;0.72;78.66
64211;BME280;50528;48.514;14.394;2023-03-04T02:53:47;93880.55;;;0.73;78.41
64211;BME280;50528;48.514;14.394;2023-03-04T02:54:22;93875.64;;;0.74;78.45
64211;BME280;50528;48.514;14.394;2023-03-04T02:54:56;93877.32;;;0.74;78.30
64211;BME280;50528;48.514;14.394;2023-03-04T02:55:30;93876.66;;;0.75;78.66
64211;BME280;50528;48.514;14.394;2023-03-04T02:56:04;93879.48;;;0.77;78.76
64211;BME280;50528;48.514;14.394;2023-03-04T02:56:47;93879.84;;;0.77;78.54
64211;BME280;50528;48.514;14.394;2023-03-04T02:57:21;93877.65;;;0.76;78.68
64211;BME280;50528;48.514;14.394;2023-03-04T02:57:58;93880.44;;;0.72;78.36
64211;BME280;50528;48.514;14.394;2023-03-04T02:58:31;93877.33;;;0.72;78.58
64211;BME280;50528;48.514;14.394;2023-03-04T02:59:05;93881.05;;;0.74;78.60
64211;BME280;50528;48.514;14.394;2023-03-04T02:59:39;93880.48;;;0.76;78.72
64211;BME280;50528;48.514;14.394;2023-03-04T03:00:14;93878.84;;;0.77;78.65
64211;BME280;50528;48.514;14.394;2023-03-04T03:00:48;93881.58;;;0.77;78.68
64211;BME280;50528;48.514;14.394;2023-03-04T03:01:22;93878.13;;;0.77;78.67
64211;BME280;50528;48.514;14.394;2023-03-04T03:02:00;93882.35;;;0.78;78.65
64211;BME280;50528;48.514;14.394;2023-03-04T03:02:33;93884.44;;;0.79;78.67
64211;BME280;50528;48.514;14.394;2023-03-04T03:03:07;93878.44;;;0.80;78.57
64211;BME280;50528;48.514;14.394;2023-03-04T03:03:42;93880.09;;;0.81;78.64
64211;BME280;50528;48.514;14.394;2023-03-04T03:04:17;93876.58;;;0.81;79.05
64211;BME280;50528;48.514;14.394;2023-03-04T03:04:51;93876.07;;;0.81;78.63
64211;BME280;50528;48.514;14.394;2023-03-04T03:05:27;93877.58;;;0.81;78.78
64211;BME280;50528;48.514;14.394;2023-03-04T03:06:02;93872.44;;;0.78;78.67
64211;BME280;50528;48.514;14.394;2023-03-04T03:06:36;93872.08;;;0.81;78.79
64211;BME280;50528;48.514;14.394;2023-03-04T03:07:09;93875.91;;;0.84;78.68
64211;BME280;50528;48.514;14.394;2023-03-04T03:07:43;93876.67;;;0.85;78.73
64211;BME280;50528;48.514;14.394;2023-03-04T03:08:17;93869.98;;;0.83;79.19
64211;BME280;50528;48.514;14.394;2023-03-04T03:08:51;93877.52;;;0.85;78.85